Time;durP1;ratioP1;P1;durP2;ratioP2;P2;SDS_P1;SDS_P2;PMS_P1;PMS_P2;Temp;Humidity;BMP_temperature;BMP_pressure;BME280_temperature;BME280_humidity;BME280_pressure;Samples;Min_cycle;Max_cycle;Signal;HPM_P1;HPM_P2
2022/12/19 00:01:36;;;;;;;57.90;20.67;;;;;;;-3.26;58.98;102068.50;4393365;32;20190;-88
2022/12/19 00:04:03;;;;;;;63.92;21.65;;;;;;;-3.29;58.97;102081.06;4401564;32;20140;-87
2022/12/19 00:06:29;;;;;;;56.75;21.25;;;;;;;-3.24;58.98;102087.28;4395947;32;20066;-86
2022/12/19 00:08:55;;;;;;;58.22;20.98;;;;;;;-3.34;58.97;102094.25;4396544;32;20271;-86
2022/12/19 00:11:21;;;;;;;54.00;19.58;;;;;;;-3.28;58.97;102082.81;4400053;32;20108;-88
2022/12/19 00:13:47;;;;;;;54.88;20.62;;;;;;;-3.30;58.97;102096.25;4399311;32;20090;-88
2022/12/19 00:16:14;;;;;;;54.65;19.50;;;;;;;-3.19;58.99;102103.72;4403451;32;20199;-88
2022/12/19 00:18:40;;;;;;;58.70;20.60;;;;;;;-3.36;58.97;102100.94;4412067;32;20106;-88
2022/12/19 00:21:07;;;;;;;53.33;21.00;;;;;;;-3.37;58.98;102099.16;4396427;32;20103;-89
2022/12/19 00:23:33;;;;;;;58.80;22.25;;;;;;;-3.33;58.98;102099.44;4396895;32;20082;-88
2022/12/19 00:26:18;;;;;;;62.78;21.90;;;;;;;-3.38;58.97;102094.87;4411684;32;20109;-88
2022/12/19 00:28:45;;;;;;;61.20;22.27;;;;;;;-3.35;58.97;102095.06;4407683;32;20110;-88
2022/12/19 00:31:10;;;;;;;63.78;22.73;;;;;;;-3.28;58.98;102092.13;4399235;32;20455;-87
2022/12/19 00:33:36;;;;;;;59.85;22.30;;;;;;;-3.35;58.97;102089.97;4411684;32;25134;-88
2022/12/19 00:36:04;;;;;;;64.28;23.23;;;;;;;-3.36;58.97;102094.16;4399213;32;20149;-88
2022/12/19 00:38:29;;;;;;;62.45;22.90;;;;;;;-3.35;58.97;102092.50;4400139;32;20105;-88
2022/12/19 00:40:54;;;;;;;61.67;22.02;;;;;;;-3.40;58.97;102098.19;4412573;32;20671;-88
2022/12/19 00:43:20;;;;;;;57.35;22.48;;;;;;;-3.43;58.96;102089.50;4411954;32;25790;-87
2022/12/19 00:45:45;;;;;;;55.63;19.67;;;;;;;-3.38;58.98;102089.78;4399611;32;20078;-88
2022/12/19 00:48:11;;;;;;;51.85;21.20;;;;;;;-3.27;58.99;102094.75;4399407;32;20121;-88
2022/12/19 00:50:36;;;;;;;52.30;21.02;;;;;;;-3.28;58.98;102089.56;4412170;32;28146;-88
2022/12/19 00:53:01;;;;;;;55.20;22.25;;;;;;;-3.22;58.98;102079.75;4411959;32;20133;-88
2022/12/19 00:55:27;;;;;;;53.60;19.98;;;;;;;-3.37;58.98;102086.44;4411861;32;26244;-88
2022/12/19 00:57:52;;;;;;;63.47;22.48;;;;;;;-3.31;58.98;102091.91;4399206;32;26551;-88
2022/12/19 01:00:18;;;;;;;56.30;21.55;;;;;;;-3.29;58.97;102090.34;4399841;32;20177;-88
2022/12/19 01:02:43;;;;;;;60.92;21.58;;;;;;;-3.40;58.98;102093.09;4387304;32;20085;-88
2022/12/19 01:06:22;;;;;;;59.88;21.77;;;;;;;-3.36;58.97;102086.53;4387083;32;20132;-89
2022/12/19 01:08:51;;;;;;;57.70;20.02;;;;;;;-3.36;58.97;102083.97;4377354;32;20087;-89
2022/12/19 01:14:14;;;;;;;58.65;21.30;;;;;;;-3.36;58.97;102072.91;4395607;32;20178;-89
2022/12/19 01:17:08;;;;;;;64.05;23.27;;;;;;;-3.37;58.97;102073.72;4397964;32;20094;-90
2022/12/19 01:19:34;;;;;;;60.00;21.27;;;;;;;-3.23;58.98;102078.88;4398373;32;20121;-87
2022/12/19 01:22:05;;;;;;;61.25;21.73;;;;;;;-3.27;58.98;102060.78;4399687;32;20101;-89
2022/12/19 01:24:31;;;;;;;60.72;23.02;;;;;;;-3.32;58.98;102055.38;4411770;32;20120;-86
2022/12/19 01:27:38;;;;;;;67.87;22.45;;;;;;;-3.26;58.99;102043.03;4398127;32;26229;-88
2022/12/19 01:30:04;;;;;;;63.42;22.98;;;;;;;-3.24;58.98;102045.66;4423400;32;20702;-87
2022/12/19 01:32:36;;;;;;;69.22;25.25;;;;;;;-3.03;58.99;102044.41;4386736;32;20187;-87
2022/12/19 01:35:02;;;;;;;75.62;26.25;;;;;;;-2.83;59.01;102031.19;4399520;32;20171;-88
2022/12/19 01:37:27;;;;;;;70.47;26.15;;;;;;;-2.70;59.01;102037.84;4399098;32;20410;-89
2022/12/19 01:39:56;;;;;;;76.12;26.27;;;;;;;-2.57;59.02;102026.69;4411605;32;20184;-88
2022/12/19 01:42:24;;;;;;;80.10;26.98;;;;;;;-2.41;59.03;102030.97;4411509;32;21319;-89
2022/12/19 01:45:04;;;;;;;80.38;28.02;;;;;;;-2.43;59.03;102024.91;4411999;32;20128;-88
2022/12/19 01:47:30;;;;;;;78.75;24.08;;;;;;;-2.28;59.04;102025.78;4412350;32;20105;-87
2022/12/19 01:50:01;;;;;;;79.70;27.37;;;;;;;-2.02;59.05;102022.12;4387133;32;20143;-87
2022/12/19 01:52:29;;;;;;;85.07;24.77;;;;;;;-1.92;59.06;102020.16;4412198;32;20112;-88
2022/12/19 01:54:54;;;;;;;72.03;24.30;;;;;;;-1.73;59.08;102021.16;4399404;32;20106;-88
2022/12/19 01:57:20;;;;;;;85.15;25.42;;;;;;;-1.64;59.08;102032.75;4412088;32;20121;-87
2022/12/19 02:00:16;;;;;;;78.35;26.75;;;;;;;-1.40;59.09;102022.97;4412341;32;20140;-88
2022/12/19 02:02:49;;;;;;;81.65;25.77;;;;;;;-1.42;59.09;102026.22;4384303;32;20515;-87
2022/12/19 02:05:23;;;;;;;77.78;23.87;;;;;;;-1.19;59.11;102024.88;4388656;32;20090;-90
2022/12/19 02:07:58;;;;;;;;;;;;;;;;;;;;;
2022/12/19 02:10:27;;;;;;;86.20;26.42;;;;;;;-1.06;59.11;102017.91;4395738;32;170462;-87
2022/12/19 02:12:52;;;;;;;86.03;27.25;;;;;;;-0.95;59.12;102021.00;4412166;32;20168;-89
2022/12/19 02:15:18;;;;;;;90.28;27.45;;;;;;;-0.82;59.12;102020.84;4411819;32;20217;-88
2022/12/19 02:18:00;;;;;;;85.55;25.95;;;;;;;-0.90;59.12;102022.16;4385933;32;23858;-89
2022/12/19 02:20:40;;;;;;;90.78;24.42;;;;;;;-0.75;59.13;102024.56;4398276;32;20724;-88
2022/12/19 02:23:52;;;;;;;79.78;26.08;;;;;;;-0.70;59.13;102020.59;4410830;32;20113;-87
2022/12/19 02:26:51;;;;;;;78.03;25.83;;;;;;;-0.66;59.13;102025.94;4413454;32;20105;-87
2022/12/19 02:29:54;;;;;;;99.60;28.23;;;;;;;-0.61;59.14;102026.16;4398820;32;20645;-87
2022/12/19 02:32:57;;;;;;;82.60;24.50;;;;;;;-0.55;59.14;102023.88;4424106;32;20518;-87
2022/12/19 02:35:45;;;;;;;88.78;27.20;;;;;;;-0.40;59.15;102029.75;4423914;32;20153;-89
2022/12/19 02:38:49;;;;;;;81.30;26.65;;;;;;;-0.40;59.15;102024.66;4427041;32;20110;-89
2022/12/19 02:42:04;;;;;;;72.15;25.70;;;;;;;-0.35;59.15;102041.09;4396231;32;20155;-91
2022/12/19 02:44:53;;;;;;;79.57;26.27;;;;;;;-0.29;59.15;102047.31;4425020;32;20193;-89
2022/12/19 02:47:20;;;;;;;75.13;25.10;;;;;;;-0.31;59.15;102043.00;4413475;32;20132;-90
2022/12/19 02:49:45;;;;;;;98.47;29.37;;;;;;;-0.29;59.15;102039.63;4400913;32;21149;-87
2022/12/19 02:52:43;;;;;;;94.28;28.83;;;;;;;-0.33;59.15;102034.38;4400412;32;20108;-91
2022/12/19 02:58:07;;;;;;;84.72;27.17;;;;;;;-0.09;59.16;102023.53;4368921;32;20093;-89
2022/12/19 03:01:03;;;;;;;81.85;27.08;;;;;;;-0.10;59.16;102021.78;4395767;32;20085;-90
2022/12/19 03:03:59;;;;;;;76.30;26.65;;;;;;;-0.16;59.16;102030.06;4405087;32;20054;-89
2022/12/19 03:06:47;;;;;;;89.60;26.50;;;;;;;-0.36;59.15;102028.22;4426561;32;20804;-90
2022/12/19 03:09:31;;;;;;;79.60;27.48;;;;;;;-0.11;59.17;102014.94;4412591;32;20110;-88
2022/12/19 03:12:01;;;;;;;86.55;26.58;;;;;;;-0.04;59.17;102019.50;4413748;32;20098;-88
2022/12/19 03:14:26;;;;;;;;;;;;;;;-0.06;59.17;102018.56;4401267;32;20106;-89
2022/12/19 03:16:51;;;;;;;76.43;25.37;;;;;;;-0.01;59.17;102020.53;4412821;32;23014;-88
2022/12/19 03:19:17;;;;;;;86.45;25.98;;;;;;;0.12;59.18;102011.75;4400126;32;20499;-88
2022/12/19 03:21:44;;;;;;;85.20;28.62;;;;;;;0.04;59.17;102007.97;4400367;32;20137;-88
2022/12/19 03:24:10;;;;;;;87.75;27.00;;;;;;;0.20;59.18;102002.72;4412950;32;20082;-89
2022/12/19 03:27:12;;;;;;;76.78;26.48;;;;;;;0.30;59.18;101993.81;4400312;32;20097;-88
2022/12/19 03:29:44;;;;;;;82.82;27.02;;;;;;;0.36;59.19;101988.06;4381368;32;20102;-88
2022/12/19 03:32:19;;;;;;;98.43;27.67;;;;;;;0.33;59.19;101993.06;4413405;32;20153;-90
2022/12/19 03:35:41;;;;;;;78.32;25.48;;;;;;;0.35;59.19;101986.31;4410301;32;20174;-89
2022/12/19 03:38:10;;;;;;;78.22;25.88;;;;;;;0.38;59.20;101973.66;4391832;32;20086;-89
2022/12/19 03:40:35;;;;;;;84.97;26.73;;;;;;;0.38;59.20;101976.22;4400265;32;20127;-88
2022/12/19 03:43:09;;;;;;;99.97;27.48;;;;;;;0.61;59.21;101973.84;4412081;32;25175;-89
2022/12/19 03:46:00;;;;;;;76.45;27.30;;;;;;;0.64;59.21;101979.91;4401722;32;20717;-89
2022/12/19 03:48:53;;;;;;;81.63;26.85;;;;;;;0.67;59.21;101973.22;4412497;32;20120;-89
2022/12/19 03:51:57;;;;;;;82.90;25.73;;;;;;;0.68;59.21;101974.12;4413755;32;20360;-89
2022/12/19 03:54:25;;;;;;;82.85;25.67;;;;;;;0.80;59.21;101979.78;4400581;32;20112;-89
2022/12/19 03:57:01;;;;;;;84.50;26.48;;;;;;;0.64;59.21;101983.34;4400212;32;20082;-89
2022/12/19 03:59:55;;;;;;;89.87;24.35;;;;;;;0.76;59.22;101980.47;4413332;32;20106;-88
2022/12/19 04:02:48;;;;;;;83.82;26.15;;;;;;;0.73;59.21;101983.78;4412800;32;20163;-89
2022/12/19 04:05:27;;;;;;;81.40;25.85;;;;;;;0.70;59.21;101985.31;4361693;32;20355;-89
2022/12/19 04:07:57;;;;;;;84.35;27.83;;;;;;;0.76;59.22;101985.59;4391592;32;20079;-90
2022/12/19 04:10:24;;;;;;;83.22;26.12;;;;;;;0.76;59.22;101983.91;4378864;32;20089;-89
2022/12/19 04:13:34;;;;;;;82.25;27.98;;;;;;;0.79;59.22;101985.72;4378678;32;20094;-89
2022/12/19 04:16:48;;;;;;;87.65;28.17;;;;;;;0.87;59.22;101984.34;4382448;32;20470;-90
2022/12/19 04:19:33;;;;;;;84.25;25.52;;;;;;;0.85;59.22;101981.72;4379054;32;20082;-87
2022/12/19 04:22:30;;;;;;;72.97;25.58;;;;;;;0.86;59.22;101993.72;4387495;32;20094;-90
2022/12/19 04:24:55;;;;;;;73.87;25.23;;;;;;;0.86;59.22;101987.72;4425111;32;20185;-89
2022/12/19 04:28:23;;;;;;;76.37;24.55;;;;;;;0.94;59.22;101983.78;4399842;32;20145;-89
2022/12/19 04:30:57;;;;;;;65.10;23.48;;;;;;;1.04;59.24;101991.09;4372306;32;20456;-90
2022/12/19 04:33:22;;;;;;;70.28;26.10;;;;;;;0.98;59.24;101990.84;4387076;32;20759;-89
2022/12/19 04:35:48;;;;;;;75.05;25.77;;;;;;;0.97;59.23;101988.22;4399299;32;25348;-89
2022/12/19 04:38:16;;;;;;;77.32;25.05;;;;;;;1.02;59.23;101982.47;4412352;32;20102;-89
2022/12/19 04:40:45;;;;;;;86.97;26.33;;;;;;;0.91;59.23;101981.97;4399164;32;23158;-90
2022/12/19 04:43:10;;;;;;;78.28;26.62;;;;;;;1.07;59.23;101980.09;4407009;27;21585;-90
2022/12/19 04:45:36;;;;;;;72.72;26.23;;;;;;;1.05;59.23;101974.88;4427437;32;21067;-90
2022/12/19 04:48:17;;;;;;;81.85;25.75;;;;;;;1.18;59.23;101981.38;4414928;32;20131;-90
2022/12/19 04:50:55;;;;;;;80.70;24.98;;;;;;;1.04;59.24;101974.81;4415537;32;20464;-90
2022/12/19 04:53:21;;;;;;;78.10;25.23;;;;;;;1.06;59.23;101966.38;4416764;32;20743;-89
2022/12/19 04:56:14;;;;;;;84.28;26.17;;;;;;;0.85;59.22;101974.03;4427404;32;20139;-90
2022/12/19 04:58:42;;;;;;;72.62;24.80;;;;;;;0.98;59.23;101984.84;4412192;32;20520;-91
2022/12/19 05:01:08;;;;;;;73.47;25.70;;;;;;;0.92;59.22;101981.16;4413194;32;20105;-89
2022/12/19 05:03:33;;;;;;;76.97;25.42;;;;;;;1.07;59.23;101992.91;4411711;32;20165;-91
2022/12/19 05:06:07;;;;;;;80.57;27.35;;;;;;;1.02;59.23;101986.72;4427462;32;20117;-89
2022/12/19 05:08:58;;;;;;;76.50;24.60;;;;;;;1.14;59.24;101990.66;4424602;32;20512;-90
2022/12/19 05:11:30;;;;;;;84.28;27.13;;;;;;;1.06;59.23;101991.16;4427248;32;20085;-89
2022/12/19 05:14:02;;;;;;;69.68;25.55;;;;;;;1.03;59.24;101991.91;4427259;32;20077;-90
2022/12/19 05:16:34;;;;;;;73.97;25.27;;;;;;;1.10;59.23;101993.03;4411093;32;20766;-90
2022/12/19 05:19:00;;;;;;;75.47;25.73;;;;;;;1.20;59.24;102001.19;4440312;32;20418;-89
2022/12/19 05:21:28;;;;;;;79.70;24.65;;;;;;;1.22;59.24;102004.69;4414262;32;20097;-89
2022/12/19 05:23:57;;;;;;;65.47;23.33;;;;;;;1.12;59.24;102006.78;4425875;32;27594;-89
2022/12/19 05:26:22;;;;;;;71.62;26.17;;;;;;;1.11;59.24;102002.47;4414575;32;20173;-87
2022/12/19 05:28:54;;;;;;;73.80;25.15;;;;;;;1.27;59.25;101992.06;4414494;32;20153;-91
2022/12/19 05:31:22;;;;;;;74.70;24.60;;;;;;;1.26;59.25;101992.00;4412802;32;20106;-90
2022/12/19 05:33:47;;;;;;;76.75;25.80;;;;;;;1.38;59.25;101984.78;4414437;32;20109;-90
2022/12/19 05:36:21;;;;;;;71.00;23.92;;;;;;;1.29;59.24;101972.47;4409141;32;20131;-89
2022/12/19 05:38:46;;;;;;;75.12;24.67;;;;;;;1.35;59.25;101971.84;4425878;32;20123;-88
2022/12/19 05:41:13;;;;;;;76.12;24.50;;;;;;;1.28;59.24;101977.53;4413678;32;20456;-87
2022/12/19 05:43:38;;;;;;;76.15;25.80;;;;;;;1.51;59.26;101987.06;4412124;32;20092;-89
2022/12/19 05:46:04;;;;;;;77.80;25.33;;;;;;;1.42;59.26;101978.97;4423045;32;20105;-88
2022/12/19 05:48:30;;;;;;;81.55;26.42;;;;;;;1.40;59.26;101986.59;4429342;32;20119;-88
2022/12/19 05:50:55;;;;;;;86.37;28.48;;;;;;;1.45;59.25;101980.00;4429189;32;20183;-87
2022/12/19 05:53:36;;;;;;;83.28;26.02;;;;;;;1.29;59.25;101977.59;4428789;32;24997;-89
2022/12/19 05:56:03;;;;;;;76.53;25.95;;;;;;;1.43;59.25;101966.22;4429008;32;20100;-88
2022/12/19 05:59:24;;;;;;;76.07;25.58;;;;;;;1.32;59.24;101977.72;4428649;32;20113;-86
2022/12/19 06:01:53;;;;;;;86.55;25.77;;;;;;;1.37;59.25;101976.22;4354244;32;20086;-87
2022/12/19 06:04:18;;;;;;;80.75;25.98;;;;;;;1.38;59.25;101974.53;4379267;32;20121;-86
2022/12/19 06:06:46;;;;;;;81.10;26.17;;;;;;;1.36;59.25;101973.59;4418909;32;21031;-88
2022/12/19 06:09:12;;;;;;;77.85;26.70;;;;;;;1.39;59.25;101979.72;4427771;32;20089;-88
2022/12/19 06:11:40;;;;;;;86.37;27.83;;;;;;;1.46;59.25;101981.75;4428695;32;20159;-88
2022/12/19 06:14:06;;;;;;;77.12;25.08;;;;;;;1.49;59.26;101993.81;4442731;32;20405;-88
2022/12/19 06:16:31;;;;;;;80.10;27.75;;;;;;;1.38;59.25;101995.06;4429884;32;20109;-88
2022/12/19 06:18:59;;;;;;;75.20;26.33;;;;;;;1.46;59.25;101997.13;4416955;32;22752;-89
2022/12/19 06:21:41;;;;;;;79.65;29.40;;;;;;;1.61;59.26;101990.84;4416714;32;20086;-87
2022/12/19 06:24:34;;;;;;;91.00;27.00;;;;;;;1.63;59.26;101995.22;4429981;32;20172;-89
2022/12/19 06:27:00;;;;;;;76.70;26.27;;;;;;;1.51;59.26;101987.94;4415285;32;20117;-87
2022/12/19 06:29:34;;;;;;;86.90;27.00;;;;;;;1.56;59.27;102000.06;4429534;32;20158;-88
2022/12/19 06:32:02;;;;;;;92.82;28.60;;;;;;;1.71;59.27;101988.72;4429825;32;20093;-88
2022/12/19 06:34:48;;;;;;;91.82;27.60;;;;;;;1.73;59.27;101979.37;4429931;32;20113;-87
2022/12/19 06:37:16;;;;;;;90.10;28.02;;;;;;;1.65;59.27;101990.16;4418188;32;20072;-86
2022/12/19 06:39:42;;;;;;;88.68;26.77;;;;;;;1.64;59.27;101996.09;4428040;32;20153;-85
2022/12/19 06:45:11;;;;;;;94.70;28.45;;;;;;;1.59;59.26;101998.50;4391270;32;20093;-87
2022/12/19 06:47:58;;;;;;;85.70;27.33;;;;;;;1.75;59.27;101997.44;4412158;32;20101;-88
2022/12/19 06:50:30;;;;;;;84.93;27.60;;;;;;;1.62;59.26;101993.47;4425706;32;20109;-88
2022/12/19 06:56:16;;;;;;;79.93;26.50;;;;;;;1.69;59.27;101986.91;4446995;27;20525;-88
2022/12/19 06:58:42;;;;;;;86.37;27.48;;;;;;;1.71;59.27;101993.00;4412583;32;20109;-86
2022/12/19 07:04:42;;;;;;;77.75;26.48;;;;;;;1.38;59.24;101995.94;4415188;32;20077;-87
2022/12/19 07:07:11;;;;;;;79.47;25.90;;;;;;;1.50;59.26;101998.12;4390002;32;20105;-87
2022/12/19 07:09:38;;;;;;;97.03;27.80;;;;;;;1.32;59.24;101995.69;4412498;32;20121;-87
2022/12/19 07:12:10;;;;;;;84.35;26.40;;;;;;;1.35;59.25;102003.50;4411970;32;20093;-86
2022/12/19 07:15:02;;;;;;;96.82;29.75;;;;;;;1.31;59.24;102004.19;4411734;32;20480;-87
2022/12/19 07:17:33;;;;;;;86.35;27.50;;;;;;;1.38;59.25;102010.44;4397681;32;20137;-87
2022/12/19 07:20:02;;;;;;;94.40;28.20;;;;;;;1.53;59.26;102008.53;4411104;32;20098;-88
2022/12/19 07:22:41;;;;;;;83.05;27.50;;;;;;;1.34;59.25;102012.00;4412078;32;20086;-89
2022/12/19 07:25:18;;;;;;;84.60;28.58;;;;;;;1.52;59.25;102002.50;4401555;32;20515;-88
2022/12/19 07:27:44;;;;;;;89.82;28.83;;;;;;;1.54;59.26;102003.44;4395935;32;20170;-86
2022/12/19 07:30:18;;;;;;;83.72;28.10;;;;;;;1.71;59.27;101999.00;4395535;32;20114;-89
2022/12/19 07:32:46;;;;;;;84.35;26.33;;;;;;;1.68;59.27;101995.44;4393473;32;20144;-88
2022/12/19 07:35:12;;;;;;;89.55;27.65;;;;;;;1.71;59.27;102008.41;4394843;32;20114;-88
2022/12/19 07:37:40;;;;;;;88.25;27.80;;;;;;;1.64;59.27;101998.66;4392918;32;20179;-87
2022/12/19 07:40:11;;;;;;;77.97;27.45;;;;;;;1.79;59.28;101996.72;4395104;32;20477;-88
2022/12/19 07:42:41;;;;;;;90.07;26.98;;;;;;;1.76;59.26;101996.59;4395103;32;20164;-88
2022/12/19 07:45:07;;;;;;;77.93;25.55;;;;;;;1.70;59.27;101996.37;4395469;32;20098;-87
2022/12/19 07:47:32;;;;;;;90.60;25.92;;;;;;;1.64;59.27;101996.09;4395322;32;20219;-88
2022/12/19 07:49:58;;;;;;;77.18;23.65;;;;;;;1.65;59.27;101987.59;4395310;32;20458;-87
2022/12/19 07:52:23;;;;;;;76.55;23.62;;;;;;;1.55;59.27;101994.06;4395348;32;20501;-86
2022/12/19 07:54:48;;;;;;;78.30;23.83;;;;;;;1.57;59.26;102006.94;4395383;32;20123;-87
2022/12/19 07:57:14;;;;;;;75.50;26.10;;;;;;;1.42;59.26;102015.78;4398607;32;23546;-87
2022/12/19 07:59:39;;;;;;;65.75;23.80;;;;;;;1.50;59.26;102018.66;4398825;32;21706;-87
2022/12/19 08:02:05;;;;;;;71.12;23.05;;;;;;;1.63;59.27;102018.34;4398749;32;20256;-87
2022/12/19 08:04:30;;;;;;;72.95;24.42;;;;;;;1.58;59.26;102016.41;4396573;32;20370;-87
2022/12/19 08:06:56;;;;;;;66.50;23.48;;;;;;;1.69;59.27;102015.16;4410970;32;20118;-87
2022/12/19 08:09:21;;;;;;;70.70;21.17;;;;;;;1.71;59.27;102027.25;4398802;32;20443;-87
2022/12/19 08:11:46;;;;;;;63.83;23.52;;;;;;;1.83;59.27;102024.28;4398765;32;20413;-87
2022/12/19 08:14:12;;;;;;;59.55;20.17;;;;;;;1.85;59.28;102026.09;4399060;32;20184;-87
2022/12/19 08:16:37;;;;;;;62.35;21.80;;;;;;;1.65;59.27;102032.09;4411432;32;20154;-87
2022/12/19 08:19:03;;;;;;;52.25;19.58;;;;;;;1.81;59.28;102042.19;4411329;32;20136;-87
2022/12/19 08:21:29;;;;;;;53.38;19.37;;;;;;;1.87;59.28;102038.97;4398663;32;20395;-87
2022/12/19 08:23:54;;;;;;;43.13;16.20;;;;;;;1.97;59.28;102043.69;4399112;32;20718;-87
2022/12/19 08:26:23;;;;;;;44.42;15.80;;;;;;;1.77;59.27;102040.31;4398422;32;20193;-87
2022/12/19 08:28:56;;;;;;;35.47;13.67;;;;;;;1.78;59.27;102029.22;4411886;32;20110;-87
2022/12/19 08:31:23;;;;;;;39.35;13.27;;;;;;;1.54;59.26;102031.69;4399274;32;20170;-87
2022/12/19 08:33:49;;;;;;;36.53;13.30;;;;;;;1.52;59.25;102027.28;4398907;32;20108;-87
2022/12/19 08:36:17;;;;;;;34.63;13.18;;;;;;;1.48;59.26;102021.16;4398637;32;20128;-87
2022/12/19 08:38:42;;;;;;;39.95;12.95;;;;;;;1.64;59.26;102012.38;4399035;32;20102;-87
2022/12/19 08:41:08;;;;;;;36.28;13.52;;;;;;;1.75;59.27;102005.12;4385958;32;20113;-88
2022/12/19 08:43:33;;;;;;;42.30;15.10;;;;;;;1.90;59.28;102008.31;4398528;32;20116;-87
2022/12/19 08:45:59;;;;;;;41.45;14.70;;;;;;;1.92;59.28;102000.66;4398727;32;20124;-87
2022/12/19 08:48:24;;;;;;;34.00;13.68;;;;;;;1.82;59.27;102004.53;4398571;32;20110;-88
2022/12/19 08:50:51;;;;;;;44.67;15.32;;;;;;;1.74;59.27;102004.25;4398670;32;20108;-87
2022/12/19 08:53:16;;;;;;;43.40;14.90;;;;;;;1.80;59.28;102009.63;4398375;32;20089;-87
2022/12/19 08:55:42;;;;;;;44.03;16.10;;;;;;;1.91;59.28;102006.63;4394323;32;20152;-87
2022/12/19 08:58:07;;;;;;;49.83;15.85;;;;;;;1.92;59.29;102006.69;4383417;32;20455;-87
2022/12/19 09:00:33;;;;;;;41.40;15.35;;;;;;;1.70;59.27;102004.06;4395856;32;20135;-87
2022/12/19 09:02:58;;;;;;;45.83;16.08;;;;;;;1.92;59.29;102016.94;4396091;32;20142;-86
2022/12/19 09:05:24;;;;;;;43.58;15.75;;;;;;;1.84;59.28;102020.88;4383513;32;20177;-86
2022/12/19 09:07:49;;;;;;;58.03;21.12;;;;;;;1.61;59.26;102009.69;4395960;32;20149;-87
2022/12/19 09:10:14;;;;;;;47.55;20.02;;;;;;;1.51;59.26;102005.88;4395864;32;22707;-87
2022/12/19 09:12:40;;;;;;;46.25;15.93;;;;;;;1.59;59.26;102001.06;4396078;32;20098;-87
2022/12/19 09:15:06;;;;;;;40.03;15.65;;;;;;;1.64;59.27;101993.53;4383295;32;20177;-87
2022/12/19 09:17:31;;;;;;;53.05;16.45;;;;;;;1.72;59.27;101993.03;4396087;32;20110;-87
2022/12/19 09:19:56;;;;;;;47.03;16.55;;;;;;;1.94;59.28;101999.03;4410420;32;25023;-88
2022/12/19 09:22:22;;;;;;;43.50;18.12;;;;;;;2.06;59.29;102008.06;4398350;32;20141;-87
2022/12/19 09:24:47;;;;;;;52.22;17.70;;;;;;;1.97;59.28;102018.00;4398105;32;22630;-87
2022/12/19 09:27:13;;;;;;;52.55;18.25;;;;;;;1.87;59.28;102018.44;4398135;32;20185;-88
2022/12/19 09:29:38;;;;;;;41.72;15.25;;;;;;;1.84;59.28;102020.88;4398328;32;20085;-87
2022/12/19 09:32:03;;;;;;;38.90;13.90;;;;;;;2.09;59.29;102018.47;4398651;32;20482;-87
2022/12/19 09:34:29;;;;;;;43.83;14.18;;;;;;;2.07;59.29;102017.53;4398271;32;20137;-88
2022/12/19 09:36:54;;;;;;;34.20;13.40;;;;;;;1.76;59.27;102005.19;4398372;32;20153;-86
2022/12/19 09:39:20;;;;;;;39.15;13.45;;;;;;;1.82;59.27;102000.28;4410895;32;20141;-86
2022/12/19 09:42:23;;;;;;;42.67;14.87;;;;;;;1.75;59.27;101989.72;4410729;32;20121;-87
2022/12/19 09:45:10;;;;;;;39.60;13.82;;;;;;;1.57;59.26;101989.84;4411160;32;20109;-87
2022/12/19 09:47:37;;;;;;;33.65;13.95;;;;;;;1.51;59.26;101981.91;4410308;32;20845;-86
2022/12/19 09:50:04;;;;;;;37.67;13.15;;;;;;;1.56;59.27;101976.97;4398175;32;20112;-87
2022/12/19 09:52:36;;;;;;;34.17;13.62;;;;;;;1.81;59.27;101979.69;4398373;32;20098;-87
2022/12/19 09:55:23;;;;;;;39.00;14.73;;;;;;;1.88;59.28;101970.50;4395408;32;20109;-88
2022/12/19 09:58:00;;;;;;;37.30;14.07;;;;;;;2.05;59.28;101965.22;4383018;32;20106;-87
2022/12/19 10:00:31;;;;;;;156.12;58.05;;;;;;;2.23;59.30;101959.91;4383176;32;20117;-87
2022/12/19 10:03:06;;;;;;;50.88;17.95;;;;;;;2.06;59.29;101956.69;4383220;32;20091;-88
2022/12/19 10:05:56;;;;;;;38.70;17.52;;;;;;;2.24;59.30;101964.22;4382893;32;20097;-87
2022/12/19 10:08:31;;;;;;;;;;;;;;;2.30;59.31;101956.72;4408907;32;20114;-87
2022/12/19 10:11:07;;;;;;;40.80;15.18;;;;;;;2.11;59.29;101951.72;4408107;32;20037;-86
2022/12/19 10:14:15;;;;;;;34.58;12.55;;;;;;;2.30;59.31;101948.16;4395431;32;20097;-87
2022/12/19 10:17:11;;;;;;;35.33;13.48;;;;;;;2.18;59.29;101938.31;4384492;32;20102;-86
2022/12/19 10:19:40;;;;;;;36.95;13.75;;;;;;;2.38;59.31;101945.06;4407612;32;20128;-86
2022/12/19 10:22:20;;;;;;;35.65;13.23;;;;;;;2.58;59.33;101957.72;4407811;32;20086;-86
2022/12/19 10:24:56;;;;;;;39.00;13.60;;;;;;;2.68;59.33;101947.84;4408955;32;20126;-86
2022/12/19 10:27:36;;;;;;;35.05;12.85;;;;;;;2.57;59.32;101948.25;4383002;32;20145;-86
2022/12/19 10:30:16;;;;;;;42.65;14.52;;;;;;;2.51;59.32;101948.06;4382350;32;20159;-86
2022/12/19 10:33:15;;;;;;;138.02;60.10;;;;;;;2.61;59.32;101934.72;4383351;32;20159;-85
2022/12/19 10:35:42;;;;;;;38.50;14.55;;;;;;;2.56;59.31;101924.25;4407548;32;20470;-86
2022/12/19 10:38:10;;;;;;;32.00;12.02;;;;;;;2.61;59.32;101925.31;4382497;32;20128;-86
2022/12/19 10:41:17;;;;;;;33.60;12.90;;;;;;;2.57;59.32;101914.84;4407820;32;20094;-87
2022/12/19 10:43:51;;;;;;;36.00;12.77;;;;;;;2.50;59.32;101918.91;4395693;32;20506;-88
2022/12/19 10:46:37;;;;;;;37.00;12.77;;;;;;;2.68;59.33;101924.69;4407606;32;20161;-87
2022/12/19 10:49:23;;;;;;;33.13;12.15;;;;;;;2.71;59.33;101913.62;4394722;32;20156;-88
2022/12/19 10:51:55;;;;;;;32.17;12.07;;;;;;;2.61;59.32;101915.03;4370049;32;20185;-88
2022/12/19 10:54:24;;;;;;;34.05;13.35;;;;;;;2.78;59.32;101911.31;4407084;32;20120;-88
2022/12/19 10:56:50;;;;;;;39.08;14.13;;;;;;;2.76;59.33;101919.81;4396470;32;20101;-88
2022/12/19 10:59:17;;;;;;;36.17;13.20;;;;;;;2.88;59.34;101909.06;4385142;32;20403;-88
2022/12/19 11:01:42;;;;;;;34.47;12.65;;;;;;;2.76;59.33;101901.81;4399776;32;20175;-88
2022/12/19 11:04:28;;;;;;;35.65;12.82;;;;;;;2.73;59.33;101904.28;4412426;32;20101;-88
2022/12/19 11:07:03;;;;;;;34.65;12.50;;;;;;;2.75;59.33;101898.34;4399280;32;20085;-87
2022/12/19 11:09:42;;;;;;;40.17;13.52;;;;;;;2.65;59.33;101895.44;4426157;32;20128;-87
2022/12/19 11:12:07;;;;;;;37.97;14.23;;;;;;;2.89;59.34;101896.25;4394591;32;20117;-88
2022/12/19 11:14:34;;;;;;;37.53;14.00;;;;;;;2.81;59.33;101894.25;4426180;32;20151;-87
2022/12/19 11:17:00;;;;;;;43.10;15.07;;;;;;;3.00;59.34;101896.59;4412135;32;20089;-88
2022/12/19 11:19:32;;;;;;;42.35;14.90;;;;;;;3.03;59.35;101896.69;4399425;32;20140;-88
2022/12/19 11:22:01;;;;;;;36.03;12.90;;;;;;;3.21;59.35;101894.75;4412349;32;20101;-88
2022/12/19 11:24:53;;;;;;;35.17;13.43;;;;;;;3.39;59.37;101891.88;4399778;32;20097;-88
2022/12/19 11:27:32;;;;;;;35.53;12.73;;;;;;;3.17;59.34;101898.03;4409109;32;20450;-88
2022/12/19 11:29:58;;;;;;;33.30;13.55;;;;;;;3.03;59.34;101887.28;4399240;32;20125;-87
2022/12/19 11:32:40;;;;;;;42.97;14.70;;;;;;;2.90;59.34;101884.28;4399465;32;20135;-88
2022/12/19 11:35:25;;;;;;;39.15;14.35;;;;;;;2.86;59.33;101883.31;4406222;32;20157;-87
2022/12/19 11:37:58;;;;;;;38.40;14.30;;;;;;;2.69;59.33;101879.28;4425828;32;20154;-88
2022/12/19 11:40:59;;;;;;;35.90;12.80;;;;;;;2.67;59.32;101880.94;4399193;32;20133;-87
2022/12/19 11:43:43;;;;;;;35.38;13.07;;;;;;;2.54;59.32;101882.19;4397139;32;20175;-87
2022/12/19 11:46:21;;;;;;;40.10;12.43;;;;;;;2.70;59.32;101874.19;4424942;32;20109;-88
2022/12/19 11:48:51;;;;;;;39.70;13.45;;;;;;;2.56;59.32;101862.56;4400273;32;20153;-87
2022/12/19 11:51:17;;;;;;;;;;;;;;;2.43;59.32;101857.81;4399636;32;20235;-88
2022/12/19 11:53:59;;;;;;;38.22;12.60;;;;;;;2.42;59.31;101853.50;4399596;32;20025;-87
2022/12/19 11:56:26;;;;;;;43.15;14.65;;;;;;;2.24;59.30;101856.31;4396539;32;20085;-88
2022/12/19 11:58:54;;;;;;;36.70;12.75;;;;;;;2.21;59.29;101842.47;4409742;32;20102;-86
2022/12/19 12:01:34;;;;;;;40.63;14.43;;;;;;;2.45;59.32;101851.03;4397657;32;20136;-88
2022/12/19 12:04:24;;;;;;;38.47;14.98;;;;;;;2.27;59.30;101850.37;4424952;32;20171;-88